createdAt,value
2018-06-16T00:01:23.127Z,96987.69
2018-06-16T00:03:52.359Z,96985.98
2018-06-16T00:06:29.161Z,96984.30
2018-06-16T00:08:58.258Z,96978.75
2018-06-16T00:11:27.392Z,96983.45
2018-06-16T00:14:00.222Z,96986.46
2018-06-16T00:16:29.339Z,96980.92
2018-06-16T00:18:58.499Z,96978.41
2018-06-16T00:21:27.670Z,96973.30
2018-06-16T00:23:56.783Z,96967.78
2018-06-16T00:26:25.975Z,96964.81
2018-06-16T00:28:55.106Z,96968.20
2018-06-16T00:31:24.294Z,96967.36
2018-06-16T00:33:53.417Z,96963.12
2018-06-16T00:36:22.519Z,96969.09
2018-06-16T00:38:51.700Z,96969.97
2018-06-16T00:41:23.100Z,96970.80
2018-06-16T00:43:52.216Z,96969.09
2018-06-16T00:46:21.392Z,96969.97
2018-06-16T00:48:50.487Z,96968.27
2018-06-16T00:51:19.608Z,96968.25
2018-06-16T00:53:48.805Z,96962.31
2018-06-16T00:56:21.909Z,96969.53
2018-06-16T00:58:51.041Z,96969.97
2018-06-16T01:01:20.208Z,96968.27
2018-06-16T01:03:49.380Z,96964.06
2018-06-16T01:06:18.483Z,96965.75
2018-06-16T01:08:48.308Z,96960.67
2018-06-16T01:11:17.450Z,96959.83
2018-06-16T01:13:49.406Z,96964.94
2018-06-16T01:16:21.789Z,96970.89
2018-06-16T01:18:50.925Z,96966.66
2018-06-16T01:21:20.130Z,96964.95
2018-06-16T01:23:49.214Z,96968.36
2018-06-16T01:26:21.624Z,96962.44
2018-06-16T01:28:50.700Z,96959.03
2018-06-16T01:31:19.810Z,96953.06
2018-06-16T01:34:05.620Z,96954.77
2018-06-16T01:36:34.854Z,96949.70
2018-06-16T01:39:04.884Z,96946.28
2018-06-16T01:41:33.975Z,96943.77
2018-06-16T01:44:03.101Z,96942.06
2018-06-16T01:46:32.601Z,96946.31
2018-06-16T01:49:01.770Z,96948.45
2018-06-16T01:51:31.761Z,96945.47
2018-06-16T01:54:00.989Z,96949.73
2018-06-16T01:56:35.661Z,96942.94
2018-06-16T01:59:10.449Z,96942.95
2018-06-16T02:01:39.577Z,96950.14
2018-06-16T02:04:09.568Z,96946.75
2018-06-16T02:06:39.508Z,96940.39
2018-06-16T02:09:10.790Z,96942.10
2018-06-16T02:11:39.992Z,96944.65
2018-06-16T02:14:09.984Z,96940.84
2018-06-16T02:16:39.193Z,96945.52
2018-06-16T02:19:09.389Z,96942.11
2018-06-16T02:24:20.109Z,96945.52
2018-06-16T02:26:49.303Z,96944.66
2018-06-16T02:29:18.475Z,96948.08
2018-06-16T02:31:47.630Z,96953.57
2018-06-16T02:34:19.811Z,96948.07
2018-06-16T02:36:49.028Z,96949.34
2018-06-16T02:39:18.209Z,96945.52
2018-06-16T02:41:47.359Z,96937.02
2018-06-16T02:44:16.533Z,96939.56
2018-06-16T02:46:45.687Z,96946.38
2018-06-16T02:49:14.924Z,96948.48
2018-06-16T02:51:44.139Z,96944.68
2018-06-16T02:54:13.217Z,96944.68
2018-06-16T02:56:42.419Z,96944.68
2018-06-16T02:59:11.547Z,96942.96
2018-06-16T03:01:40.719Z,96948.06
2018-06-16T03:04:09.907Z,96943.84
2018-06-16T03:06:39.075Z,96937.45
2018-06-16T03:09:09.751Z,96942.98
2018-06-16T03:11:38.992Z,96936.63
2018-06-16T03:14:08.169Z,96938.31
2018-06-16T03:16:37.331Z,96942.98
2018-06-16T03:19:16.495Z,96936.56
2018-06-16T03:21:45.669Z,96934.44
2018-06-16T03:24:15.345Z,96928.49
2018-06-16T03:26:44.524Z,96931.04
2018-06-16T03:29:13.701Z,96932.77
2018-06-16T03:31:42.867Z,96930.19
2018-06-16T03:34:12.237Z,96933.59
2018-06-16T03:36:42.419Z,96935.28
2018-06-16T03:39:11.551Z,96940.38
2018-06-16T03:41:40.963Z,96944.20
2018-06-16T03:44:10.258Z,96938.25
2018-06-16T03:46:39.465Z,96942.06
2018-06-16T03:49:09.027Z,96941.21
2018-06-16T03:51:41.441Z,96939.11
2018-06-16T03:54:10.557Z,96946.33
2018-06-16T03:56:39.773Z,96944.63
2018-06-16T03:59:08.930Z,96952.26
2018-06-16T04:01:40.837Z,96955.25
2018-06-16T04:04:10.362Z,96954.83
2018-06-16T04:06:39.710Z,96955.23
2018-06-16T04:09:10.188Z,96947.21
2018-06-16T04:11:39.665Z,96954.02
2018-06-16T04:14:09.472Z,96952.73
2018-06-16T04:16:38.748Z,96957.41
2018-06-16T04:19:08.528Z,96955.72
2018-06-16T04:21:37.708Z,96957.82
2018-06-16T04:24:12.585Z,96955.27
2018-06-16T04:26:48.804Z,96960.37
2018-06-16T04:29:18.022Z,96957.41
2018-06-16T04:31:47.195Z,96952.73
2018-06-16T04:34:16.412Z,96958.24
2018-06-16T04:36:45.640Z,96962.94
2018-06-16T04:39:21.398Z,96961.61
2018-06-16T04:41:51.117Z,96964.14
2018-06-16T04:44:20.292Z,96962.47
2018-06-16T04:46:49.560Z,96961.65
2018-06-16T04:49:18.710Z,96959.11
2018-06-16T04:51:47.891Z,96964.20
2018-06-16T04:54:30.098Z,96968.01
2018-06-16T04:56:59.254Z,96965.88
2018-06-16T04:59:28.357Z,96980.32
2018-06-16T05:01:57.510Z,96964.17
2018-06-16T05:04:26.647Z,96964.56
2018-06-16T05:06:55.756Z,96969.22
2018-06-16T05:09:24.848Z,96968.34
2018-06-16T05:11:53.927Z,96963.66
2018-06-16T05:14:23.034Z,96964.91
2018-06-16T05:16:54.214Z,96964.05
2018-06-16T05:19:23.344Z,96968.28
2018-06-16T05:21:52.555Z,96963.98
2018-06-16T05:24:21.714Z,96961.86
2018-06-16T05:26:50.872Z,96969.06
2018-06-16T05:29:20.111Z,96963.08
2018-06-16T05:31:52.338Z,96958.77
2018-06-16T05:34:22.896Z,96955.31
2018-06-16T05:36:52.103Z,96953.55
2018-06-16T05:39:21.364Z,96954.40
2018-06-16T05:41:51.226Z,96956.08
2018-06-16T05:44:21.581Z,96950.92
2018-06-16T05:46:50.925Z,96950.48
2018-06-16T05:49:20.137Z,96955.13
2018-06-16T05:51:49.345Z,96952.54
2018-06-16T05:54:22.159Z,96956.75
2018-06-16T05:56:51.516Z,96955.88
2018-06-16T05:59:20.723Z,96955.02
2018-06-16T06:01:49.983Z,96957.48
2018-06-16T06:04:19.134Z,96949.78
2018-06-16T06:06:48.438Z,96953.98
2018-06-16T06:09:17.573Z,96957.30
2018-06-16T06:11:46.804Z,96958.17
2018-06-16T06:14:15.900Z,96963.24
2018-06-16T06:16:45.101Z,96964.48
2018-06-16T06:19:17.820Z,96967.00
2018-06-16T06:21:46.997Z,96969.08
2018-06-16T06:24:17.410Z,96969.44
2018-06-16T06:26:46.894Z,96961.27
2018-06-16T06:29:16.479Z,96961.98
2018-06-16T06:31:45.758Z,96961.89
2018-06-16T06:34:14.860Z,96958.83
2018-06-16T06:36:43.989Z,96952.34
2018-06-16T06:39:13.210Z,96954.34
2018-06-16T06:41:42.425Z,96956.34
2018-06-16T06:44:11.540Z,96952.84
2018-06-16T06:46:40.684Z,96957.51
2018-06-16T06:49:09.809Z,96961.11
2018-06-16T06:51:39.015Z,96957.49
2018-06-16T06:54:11.450Z,96954.00
2018-06-16T06:56:42.990Z,96958.16
2018-06-16T06:59:12.097Z,96955.47
2018-06-16T07:01:41.317Z,96956.69
2018-06-16T07:04:12.092Z,96956.24
2018-06-16T07:06:41.261Z,96965.59
2018-06-16T07:09:11.719Z,96955.19
2018-06-16T07:11:40.904Z,96946.90
2018-06-16T07:14:11.050Z,96953.10
2018-06-16T07:16:40.215Z,96954.72
2018-06-16T07:19:09.380Z,96953.75
2018-06-16T07:21:39.150Z,96957.83
2018-06-16T07:24:08.297Z,96952.44
2018-06-16T07:26:37.423Z,96957.34
2018-06-16T07:29:06.598Z,96949.50
2018-06-16T07:31:35.706Z,96943.77
2018-06-16T07:34:04.861Z,96948.58
2018-06-16T07:36:34.055Z,96946.26
2018-06-16T07:39:03.348Z,96944.70
2018-06-16T07:41:32.741Z,96948.45
2018-06-16T07:44:02.329Z,96946.58
2018-06-16T07:46:33.039Z,96947.59
2018-06-16T07:49:09.431Z,96957.20
2018-06-16T07:51:38.593Z,96947.45
2018-06-16T07:54:07.713Z,96945.70
2018-06-16T07:56:38.233Z,96948.14
2018-06-16T07:59:13.111Z,96942.44
2018-06-16T08:01:42.277Z,96948.14
2018-06-16T08:04:26.056Z,96944.14
2018-06-16T08:06:55.545Z,96947.13
2018-06-16T08:09:24.873Z,96948.52
2018-06-16T08:11:54.119Z,96938.05
2018-06-16T08:14:23.424Z,96940.56
2018-06-16T08:16:52.605Z,96942.81
2018-06-16T08:19:21.728Z,96946.59
2018-06-16T08:21:50.853Z,96943.38
2018-06-16T08:24:19.993Z,96944.48
2018-06-16T08:26:49.087Z,96940.62
2018-06-16T08:29:18.190Z,96946.52
2018-06-16T08:31:47.261Z,96945.05
2018-06-16T08:34:16.321Z,96937.52
2018-06-16T08:36:45.396Z,96941.77
2018-06-16T08:39:22.934Z,96943.99
2018-06-16T08:41:52.035Z,96936.91
2018-06-16T08:44:21.284Z,96943.67
2018-06-16T08:46:50.492Z,96938.95
2018-06-16T08:49:19.589Z,96938.63
2018-06-16T08:51:48.684Z,96938.80
2018-06-16T08:54:17.842Z,96937.92
2018-06-16T08:56:49.600Z,96941.06
2018-06-16T08:59:18.831Z,96939.86
2018-06-16T09:01:51.308Z,96941.08
2018-06-16T09:04:20.524Z,96935.51
2018-06-16T09:06:50.633Z,96931.03
2018-06-16T09:09:19.801Z,96934.54
2018-06-16T09:11:49.027Z,96936.41
2018-06-16T09:14:21.783Z,96937.80
2018-06-16T09:16:51.101Z,96933.44
2018-06-16T09:19:20.222Z,96933.47
2018-06-16T09:21:49.347Z,96933.64
2018-06-16T09:24:18.671Z,96936.13
2018-06-16T09:26:47.952Z,96942.08
2018-06-16T09:29:17.860Z,96931.43
2018-06-16T09:31:47.732Z,96929.05
2018-06-16T09:34:19.217Z,96929.23
2018-06-16T09:36:48.387Z,96929.61
2018-06-16T09:39:17.939Z,96936.48
2018-06-16T09:41:47.990Z,96941.27
2018-06-16T09:44:18.005Z,96941.68
2018-06-16T09:46:47.957Z,96933.38
2018-06-16T09:49:18.056Z,96936.50
2018-06-16T09:51:49.368Z,96931.94
2018-06-16T09:54:18.575Z,96930.78
2018-06-16T09:56:48.203Z,96931.48
2018-06-16T09:59:18.202Z,96930.83
2018-06-16T10:01:48.349Z,96927.64
2018-06-16T10:04:18.237Z,96926.75
2018-06-16T10:06:48.288Z,96923.58
2018-06-16T10:09:19.630Z,96920.33
2018-06-16T10:11:48.807Z,96924.02
2018-06-16T10:14:18.273Z,96912.52
2018-06-16T10:16:49.177Z,96922.91
2018-06-16T10:19:19.876Z,96919.00
2018-06-16T10:21:49.118Z,96913.77
2018-06-16T10:24:18.446Z,96919.26
2018-06-16T10:26:48.417Z,96910.52
2018-06-16T10:29:18.536Z,96910.14
2018-06-16T10:31:48.649Z,96911.38
2018-06-16T10:34:18.588Z,96910.90
2018-06-16T10:36:48.507Z,96908.31
2018-06-16T10:39:24.769Z,96914.18
2018-06-16T10:41:53.924Z,96902.50
2018-06-16T10:44:23.248Z,96906.59
2018-06-16T10:46:52.512Z,96906.47
2018-06-16T10:49:21.642Z,96900.78
2018-06-16T10:51:51.337Z,96902.62
2018-06-16T10:54:20.550Z,96902.12
2018-06-16T10:56:49.734Z,96892.07
2018-06-16T10:59:18.934Z,96899.08
2018-06-16T11:01:48.855Z,96895.43
2018-06-16T11:04:18.884Z,96895.50
2018-06-16T11:06:48.793Z,96894.41
2018-06-16T11:09:18.944Z,96893.63
2018-06-16T11:11:48.827Z,96885.72
2018-06-16T11:14:18.896Z,96881.73
2018-06-16T11:16:48.901Z,96884.83
2018-06-16T11:19:21.861Z,96880.81
2018-06-16T11:21:50.934Z,96875.12
2018-06-16T11:24:20.114Z,96872.12
2018-06-16T11:26:49.412Z,96878.20
2018-06-16T11:29:19.084Z,96871.84
2018-06-16T11:31:49.070Z,96872.91
2018-06-16T11:34:20.138Z,96865.36
2018-06-16T11:36:49.430Z,96858.13
2018-06-16T11:39:19.179Z,96864.17
2018-06-16T11:41:49.328Z,96859.50
2018-06-16T11:44:19.313Z,96860.39
2018-06-16T11:46:49.373Z,96859.72
2018-06-16T11:49:29.242Z,96852.19
2018-06-16T11:51:58.450Z,96853.28
2018-06-16T11:54:27.872Z,96854.94
2018-06-16T11:56:57.130Z,96846.43
2018-06-16T11:59:26.311Z,96846.93
2018-06-16T12:01:55.651Z,96837.23
2018-06-16T12:04:24.831Z,96834.58
2018-06-16T12:06:53.940Z,96838.22
2018-06-16T12:09:23.058Z,96831.11
2018-06-16T12:11:52.281Z,96829.39
2018-06-16T12:14:21.493Z,96820.77
2018-06-16T12:16:50.622Z,96824.14
2018-06-16T12:19:19.721Z,96812.61
2018-06-16T12:21:49.604Z,96822.78
2018-06-16T12:24:20.579Z,96819.25
2018-06-16T12:26:49.894Z,96813.93
2018-06-16T12:29:18.995Z,96814.13
2018-06-16T12:31:48.135Z,96820.53
2018-06-16T12:34:29.705Z,96814.46
2018-06-16T12:36:58.921Z,96816.82
2018-06-16T12:39:28.070Z,96817.77
2018-06-16T12:41:57.201Z,96808.58
2018-06-16T12:44:26.510Z,96816.30
2018-06-16T12:46:56.431Z,96806.95
2018-06-16T12:49:26.416Z,96810.09
2018-06-16T12:51:56.395Z,96817.84
2018-06-16T12:54:26.452Z,96816.42
2018-06-16T12:56:56.556Z,96817.98
2018-06-16T12:59:26.318Z,96810.45
2018-06-16T13:02:01.335Z,96816.23
2018-06-16T13:04:33.512Z,96816.59
2018-06-16T13:07:02.637Z,96812.83
2018-06-16T13:09:31.804Z,96796.95
2018-06-16T13:12:01.082Z,96797.43
2018-06-16T13:14:30.175Z,96798.95
2018-06-16T13:16:59.272Z,96789.84
2018-06-16T13:19:28.592Z,96790.98
2018-06-16T13:21:57.688Z,96786.11
2018-06-16T13:24:26.886Z,96786.05
2018-06-16T13:26:56.567Z,96790.45
2018-06-16T13:29:26.668Z,96784.44
2018-06-16T13:31:56.688Z,96781.08
2018-06-16T13:34:26.859Z,96787.36
2018-06-16T13:36:56.712Z,96788.39
2018-06-16T13:39:26.739Z,96781.52
2018-06-16T13:41:56.783Z,96776.80
2018-06-16T13:44:26.875Z,96777.37
2018-06-16T13:46:56.896Z,96772.93
2018-06-16T13:49:27.022Z,96781.75
2018-06-16T13:51:56.973Z,96772.48
2018-06-16T13:54:30.800Z,96774.41
2018-06-16T13:57:00.033Z,96768.10
2018-06-16T13:59:29.189Z,96765.55
2018-06-16T14:01:58.395Z,96767.00
2018-06-16T14:04:27.501Z,96763.34
2018-06-16T14:06:56.931Z,96762.77
2018-06-16T14:09:26.989Z,96758.61
2018-06-16T14:11:56.981Z,96758.92
2018-06-16T14:14:27.094Z,96757.45
2018-06-16T14:16:57.036Z,96755.48
2018-06-16T14:19:27.132Z,96755.47
2018-06-16T14:21:57.129Z,96750.84
2018-06-16T14:24:27.159Z,96751.95
2018-06-16T14:26:57.317Z,96740.52
2018-06-16T14:29:27.149Z,96743.61
2018-06-16T14:31:57.283Z,96749.91
2018-06-16T14:34:27.340Z,96746.33
2018-06-16T14:36:57.213Z,96748.70
2018-06-16T14:39:27.327Z,96751.80
2018-06-16T14:41:57.306Z,96746.34
2018-06-16T14:44:30.888Z,96741.78
2018-06-16T14:47:00.151Z,96750.50
2018-06-16T14:49:29.243Z,96737.29
2018-06-16T14:51:58.465Z,96734.98
2018-06-16T14:54:27.767Z,96731.50
2018-06-16T14:56:57.794Z,96727.61
2018-06-16T14:59:27.835Z,96726.98
2018-06-16T15:01:57.952Z,96732.34
2018-06-16T15:04:28.660Z,96725.80
2018-06-16T15:06:57.848Z,96730.81
2018-06-16T15:09:28.067Z,96730.32
2018-06-16T15:11:57.900Z,96732.45
2018-06-16T15:14:27.850Z,96733.91
2018-06-16T15:16:57.857Z,96735.75
2018-06-16T15:19:27.988Z,96733.12
2018-06-16T15:21:59.739Z,96733.80
2018-06-16T15:24:32.391Z,96734.81
2018-06-16T15:27:10.503Z,96737.64
2018-06-16T15:29:39.847Z,96739.45
2018-06-16T15:32:11.582Z,96740.37
2018-06-16T15:34:40.694Z,96737.77
2018-06-16T15:37:09.828Z,96734.25
2018-06-16T15:39:39.343Z,96737.39
2018-06-16T15:42:13.646Z,96731.28
2018-06-16T15:44:43.013Z,96724.89
2018-06-16T15:47:12.136Z,96723.23
2018-06-16T15:49:41.259Z,96714.00
2018-06-16T15:52:10.495Z,96713.89
2018-06-16T15:54:39.783Z,96718.06
2018-06-16T15:57:09.069Z,96711.24
2018-06-16T15:59:38.175Z,96718.05
2018-06-16T16:02:07.245Z,96713.73
2018-06-16T16:04:49.110Z,96710.83
2018-06-16T16:07:24.293Z,96714.91
2018-06-16T16:09:53.394Z,96706.66
2018-06-16T16:12:22.691Z,96707.09
2018-06-16T16:14:51.788Z,96707.44
2018-06-16T16:17:21.578Z,96703.75
2018-06-16T16:19:50.638Z,96705.48
2018-06-16T16:22:19.797Z,96702.43
2018-06-16T16:24:49.014Z,96703.23
2018-06-16T16:27:18.185Z,96704.69
2018-06-16T16:29:47.293Z,96705.39
2018-06-16T16:32:17.803Z,96710.67
2018-06-16T16:34:46.858Z,96709.59
2018-06-16T16:37:17.373Z,96711.33
2018-06-16T16:39:46.589Z,96703.52
2018-06-16T16:42:15.674Z,96714.87
2018-06-16T16:44:45.126Z,96713.56
2018-06-16T16:47:16.024Z,96709.19
2018-06-16T16:49:45.233Z,96711.36
2018-06-16T16:52:15.098Z,96708.37
2018-06-16T16:54:44.184Z,96709.91
2018-06-16T16:57:13.319Z,96715.89
2018-06-16T16:59:43.339Z,96711.84
2018-06-16T17:02:12.517Z,96716.63
2018-06-16T17:04:41.710Z,96716.95
2018-06-16T17:07:10.864Z,96716.19
2018-06-16T17:09:40.140Z,96717.44
2018-06-16T17:12:09.293Z,96721.63
2018-06-16T17:14:38.406Z,96717.98
2018-06-16T17:17:07.983Z,96718.73
2018-06-16T17:19:37.246Z,96724.73
2018-06-16T17:22:06.705Z,96724.03
2018-06-16T17:24:39.030Z,96716.80
2018-06-16T17:27:08.270Z,96725.04
2018-06-16T17:29:37.470Z,96724.35
2018-06-16T17:32:07.128Z,96724.56
2018-06-16T17:34:36.462Z,96726.75
2018-06-16T17:37:08.990Z,96727.16
2018-06-16T17:39:38.289Z,96731.53
2018-06-16T17:42:07.750Z,96725.89
2018-06-16T17:44:37.544Z,96734.72
2018-06-16T17:47:10.071Z,96733.34
2018-06-16T17:49:44.658Z,96735.98
2018-06-16T17:52:13.919Z,96741.97
2018-06-16T17:54:43.207Z,96740.98
2018-06-16T17:57:14.750Z,96737.86
2018-06-16T17:59:43.901Z,96738.20
2018-06-16T18:02:13.997Z,96737.20
2018-06-16T18:04:43.299Z,96743.50
2018-06-16T18:07:13.515Z,96745.83
2018-06-16T18:09:44.274Z,96749.80
2018-06-16T18:12:13.603Z,96748.17
2018-06-16T18:14:42.873Z,96753.64
2018-06-16T18:17:12.072Z,96745.50
2018-06-16T18:19:41.288Z,96751.86
2018-06-16T18:22:10.504Z,96743.64
2018-06-16T18:24:39.782Z,96744.08
2018-06-16T18:27:08.962Z,96749.13
2018-06-16T18:29:38.208Z,96760.14
2018-06-16T18:32:07.635Z,96752.62
2018-06-16T18:34:37.560Z,96758.00
2018-06-16T18:37:07.641Z,96757.02
2018-06-16T18:39:37.872Z,96756.89
2018-06-16T18:42:07.706Z,96763.22
2018-06-16T18:44:38.266Z,96761.80
2018-06-16T18:47:07.983Z,96754.41
2018-06-16T18:49:37.750Z,96764.20
2018-06-16T18:52:07.929Z,96765.25
2018-06-16T18:54:37.961Z,96767.63
2018-06-16T18:57:07.844Z,96771.11
2018-06-16T18:59:38.084Z,96765.57
2018-06-16T19:02:08.077Z,96775.03
2018-06-16T19:04:38.109Z,96781.84
2018-06-16T19:07:08.059Z,96781.33
2018-06-16T19:09:38.125Z,96777.35
2018-06-16T19:12:08.202Z,96791.39
2018-06-16T19:14:38.201Z,96789.90
2018-06-16T19:17:08.141Z,96782.48
2018-06-16T19:19:38.214Z,96787.06
2018-06-16T19:22:08.231Z,96796.33
2018-06-16T19:24:38.228Z,96794.33
2018-06-16T19:27:08.324Z,96795.45
2018-06-16T19:29:40.588Z,96793.18
2018-06-16T19:32:10.074Z,96799.45
2018-06-16T19:34:39.248Z,96803.24
2018-06-16T19:37:08.347Z,96805.75
2018-06-16T19:40:54.832Z,96815.91
2018-06-16T19:43:24.087Z,96827.43
2018-06-16T19:45:53.159Z,96824.23
2018-06-16T19:48:23.924Z,96825.38
2018-06-16T19:50:53.189Z,96824.32
2018-06-16T19:53:22.595Z,96826.69
2018-06-16T19:55:51.634Z,96834.80
2018-06-16T19:58:20.888Z,96841.84
2018-06-16T20:00:50.103Z,96837.75
2018-06-16T20:03:19.130Z,96833.25
2018-06-16T20:05:49.992Z,96835.52
2018-06-16T20:08:19.212Z,96833.20
2018-06-16T20:10:48.388Z,96836.84
2018-06-16T20:13:17.598Z,96830.09
2018-06-16T20:15:46.802Z,96829.38
2018-06-16T20:18:15.825Z,96831.20
2018-06-16T20:20:44.959Z,96833.02
2018-06-16T20:23:14.299Z,96837.36
2018-06-16T20:25:43.789Z,96839.03
2018-06-16T20:28:12.882Z,96845.14
2018-06-16T20:30:41.950Z,96844.43
2018-06-16T20:33:11.312Z,96845.48
2018-06-16T20:35:40.320Z,96850.72
2018-06-16T20:38:09.479Z,96851.78
2018-06-16T20:40:42.014Z,96849.35
2018-06-16T20:43:11.470Z,96853.78
2018-06-16T20:45:40.614Z,96851.78
2018-06-16T20:48:09.677Z,96860.08
2018-06-16T20:50:39.279Z,96861.13
2018-06-16T20:53:09.146Z,96860.40
2018-06-16T20:55:39.395Z,96866.49
2018-06-16T20:58:09.281Z,96866.72
2018-06-16T21:00:39.300Z,96864.31
2018-06-16T21:03:09.661Z,96861.97
2018-06-16T21:05:39.748Z,96857.85
2018-06-16T21:08:09.479Z,96856.31
2018-06-16T21:10:39.645Z,96861.97
2018-06-16T21:13:09.774Z,96861.23
2018-06-16T21:15:40.054Z,96860.03
2018-06-16T21:18:09.712Z,96868.68
2018-06-16T21:20:39.946Z,96873.48
2018-06-16T21:23:09.810Z,96870.64
2018-06-16T21:25:39.865Z,96873.67
2018-06-16T21:28:09.886Z,96881.89
2018-06-16T21:30:39.719Z,96873.45
2018-06-16T21:33:09.930Z,96876.91
2018-06-16T21:35:39.584Z,96871.81
2018-06-16T21:38:08.818Z,96879.52
2018-06-16T21:40:38.021Z,96877.88
2018-06-16T21:43:07.300Z,96882.16
2018-06-16T21:45:36.327Z,96881.34
2018-06-16T21:48:05.883Z,96879.70
2018-06-16T21:50:35.055Z,96881.42
2018-06-16T21:53:04.078Z,96875.47
2018-06-16T21:55:33.828Z,96879.86
2018-06-16T21:58:02.888Z,96879.52
2018-06-16T22:00:35.946Z,96882.55
2018-06-16T22:03:07.149Z,96881.80
2018-06-16T22:05:36.169Z,96879.30
2018-06-16T22:08:10.762Z,96887.94
2018-06-16T22:10:40.067Z,96884.55
2018-06-16T22:13:09.701Z,96893.14
2018-06-16T22:15:40.141Z,96889.00
2018-06-16T22:18:09.811Z,96895.91
2018-06-16T22:20:38.937Z,96891.28
2018-06-16T22:23:08.006Z,96895.62
2018-06-16T22:25:37.263Z,96893.59
2018-06-16T22:28:06.355Z,96896.26
2018-06-16T22:30:35.558Z,96893.33
2018-06-16T22:33:04.576Z,96892.94
2018-06-16T22:35:33.939Z,96894.68
2018-06-16T22:38:02.938Z,96895.20
2018-06-16T22:40:32.160Z,96894.05
2018-06-16T22:43:01.214Z,96895.09
2018-06-16T22:45:30.226Z,96899.41
2018-06-16T22:47:59.237Z,96899.41
2018-06-16T22:50:28.340Z,96901.20
2018-06-16T22:52:57.386Z,96902.94
2018-06-16T22:55:26.389Z,96897.88
2018-06-16T22:57:55.447Z,96904.75
2018-06-16T23:00:27.928Z,96905.20
2018-06-16T23:02:58.070Z,96905.72
2018-06-16T23:05:27.112Z,96904.06
2018-06-16T23:07:56.147Z,96905.41
2018-06-16T23:10:25.475Z,96900.73
2018-06-16T23:12:54.516Z,96905.09
2018-06-16T23:15:23.537Z,96897.89
2018-06-16T23:17:52.593Z,96898.83
2018-06-16T23:20:21.682Z,96899.23
2018-06-16T23:22:50.829Z,96902.22
2018-06-16T23:25:19.963Z,96896.35
2018-06-16T23:27:48.973Z,96903.64
2018-06-16T23:30:18.604Z,96906.22
2018-06-16T23:32:47.650Z,96906.22
2018-06-16T23:35:16.745Z,96906.28
2018-06-16T23:37:45.812Z,96904.17
2018-06-16T23:40:14.854Z,96905.51
2018-06-16T23:42:43.889Z,96900.41
2018-06-16T23:45:13.014Z,96904.30
2018-06-16T23:47:42.410Z,96906.11
2018-06-16T23:50:12.581Z,96904.88
2018-06-16T23:52:41.580Z,96904.48
2018-06-16T23:55:10.720Z,96901.52
2018-06-16T23:57:39.721Z,96907.50
